Time;durP1;ratioP1;P1;durP2;ratioP2;P2;SDS_P1;SDS_P2;PMS_P1;PMS_P2;Temp;Humidity;BMP_temperature;BMP_pressure;BME280_temperature;BME280_humidity;BME280_pressure;Samples;Min_cycle;Max_cycle;Signal;HPM_P1;HPM_P2
2022/05/10 04:09:40;;;;;;;6.25;4.70;;;;;;;17.16;66.43;101112.94;5598251;31;84279;-59
2022/05/10 04:12:43;;;;;;;7.15;4.18;;;;;;;17.16;66.43;101112.94;5599834;31;33341;-59
2022/05/10 04:15:45;;;;;;;5.62;4.57;;;;;;;16.72;66.35;101114.44;5603443;31;33625;-60
2022/05/10 04:18:48;;;;;;;10.60;4.12;;;;;;;16.77;67.26;101121.66;5602554;31;34335;-59
2022/05/10 04:21:50;;;;;;;6.03;4.68;;;;;;;16.82;67.54;101122.38;5593737;31;33591;-60
2022/05/10 04:24:53;;;;;;;5.68;4.45;;;;;;;17.13;72.00;101121.69;5586469;31;32344;-59
2022/05/10 04:27:55;;;;;;;6.25;4.30;;;;;;;17.29;69.09;101125.63;5601491;31;34141;-60
2022/05/10 04:30:58;;;;;;;8.35;4.72;;;;;;;17.45;62.71;101133.38;5602538;31;33767;-60
2022/05/10 04:34:00;;;;;;;6.07;4.18;;;;;;;17.46;62.55;101129.59;5603149;31;34174;-59
2022/05/10 04:37:03;;;;;;;6.25;4.22;;;;;;;17.46;67.59;101141.22;5601781;31;33518;-60
2022/05/10 04:43:27;;;;;;;5.55;4.18;;;;;;;17.54;63.45;101137.75;5599747;31;33571;-60
2022/05/10 04:46:31;;;;;;;5.90;4.10;;;;;;;17.76;68.41;101141.59;5602827;31;34235;-59
2022/05/10 04:49:34;;;;;;;5.32;4.43;;;;;;;17.81;67.72;101141.47;5590619;31;34101;-60
2022/05/10 04:52:36;;;;;;;9.27;5.12;;;;;;;17.89;61.11;101143.44;5598177;31;33668;-59
2022/05/10 04:55:39;;;;;;;8.60;4.32;;;;;;;18.02;59.79;101149.91;5599513;31;34294;-59
2022/05/10 04:58:41;;;;;;;6.35;4.50;;;;;;;18.04;60.08;101142.25;5601971;31;34213;-59
2022/05/10 05:01:43;;;;;;;10.82;4.37;;;;;;;18.11;61.81;101148.00;5594422;31;33212;-57
2022/05/10 05:04:45;;;;;;;7.25;4.55;;;;;;;18.12;60.65;101149.63;5599763;31;33573;-59
2022/05/10 05:07:48;;;;;;;10.20;4.53;;;;;;;18.25;63.82;101151.44;5598799;31;33763;-59
2022/05/10 05:10:50;;;;;;;6.75;4.30;;;;;;;18.31;59.90;101152.91;5597907;31;33568;-60
2022/05/10 05:13:53;;;;;;;8.25;4.20;;;;;;;18.24;59.32;101157.19;5593394;31;33737;-59
2022/05/10 05:16:55;;;;;;;6.50;4.10;;;;;;;18.44;66.80;101162.06;5589711;31;34394;-60
2022/05/10 05:19:57;;;;;;;8.45;4.53;;;;;;;18.37;58.40;101164.41;5592284;31;34497;-59
2022/05/10 05:23:01;;;;;;;6.65;4.82;;;;;;;18.35;59.27;101166.66;5586208;31;33264;-60
2022/05/10 05:26:03;;;;;;;7.47;4.30;;;;;;;18.36;58.85;101165.53;5586987;31;33740;-59
2022/05/10 05:29:05;;;;;;;8.05;4.95;;;;;;;18.49;57.55;101161.91;5585865;31;33975;-59
2022/05/10 05:32:10;;;;;;;7.72;5.35;;;;;;;18.55;58.94;101170.72;5585871;31;34042;-59
2022/05/10 05:35:13;;;;;;;9.05;4.93;;;;;;;18.59;57.70;101163.53;5584610;31;34272;-60
2022/05/10 05:38:16;;;;;;;10.15;4.82;;;;;;;18.60;60.66;101173.28;5586489;31;33567;-59
2022/05/10 05:41:18;;;;;;;23.17;5.00;;;;;;;18.67;59.56;101170.09;5579660;31;33776;-59
2022/05/10 05:44:23;;;;;;;8.50;4.80;;;;;;;18.65;58.84;101172.34;5588239;31;34523;-59
2022/05/10 05:47:26;;;;;;;8.60;5.07;;;;;;;18.77;58.57;101165.25;5587107;31;33686;-59
2022/05/10 05:50:30;;;;;;;9.77;4.82;;;;;;;18.77;58.50;101169.84;5588344;31;33576;-58
2022/05/10 05:53:32;;;;;;;8.65;4.45;;;;;;;18.92;59.18;101174.84;5587634;31;34302;-60
2022/05/10 05:56:35;;;;;;;9.88;5.25;;;;;;;19.04;59.02;101176.94;5588554;31;33613;-59
2022/05/10 05:59:37;;;;;;;11.77;5.03;;;;;;;19.24;58.31;101172.81;5587683;31;34000;-59
2022/05/10 06:02:42;;;;;;;17.77;5.43;;;;;;;19.31;56.35;101166.91;5573992;31;33673;-59
2022/05/10 06:05:44;;;;;;;6.32;4.50;;;;;;;19.36;55.47;101172.16;5568643;32;34414;-59
2022/05/10 06:08:46;;;;;;;9.27;4.45;;;;;;;19.39;60.73;101179.69;5585809;31;33720;-59
2022/05/10 06:11:49;;;;;;;6.05;4.50;;;;;;;19.39;55.83;101176.97;5584721;31;33628;-58
2022/05/10 06:14:51;;;;;;;7.55;4.50;;;;;;;19.64;61.99;101176.19;5579664;31;33818;-60
2022/05/10 06:17:56;;;;;;;7.78;5.00;;;;;;;19.83;62.63;101186.69;5586558;31;33712;-59
2022/05/10 06:20:59;;;;;;;6.43;4.60;;;;;;;19.86;58.12;101188.78;5586521;31;33207;-60
2022/05/10 06:24:02;;;;;;;10.15;5.68;;;;;;;19.93;55.41;101180.94;5586781;31;34563;-60
2022/05/10 06:27:06;;;;;;;8.90;4.68;;;;;;;19.97;52.30;101183.00;5585964;31;33658;-59
2022/05/10 06:30:10;;;;;;;9.10;4.80;;;;;;;19.98;52.53;101174.50;5586932;31;33636;-59
2022/05/10 06:33:12;;;;;;;6.70;4.70;;;;;;;19.95;52.94;101183.31;5587219;31;34266;-59
2022/05/10 06:36:14;;;;;;;10.18;5.15;;;;;;;19.90;53.12;101178.88;5587322;31;34193;-59
2022/05/10 06:39:17;;;;;;;8.70;4.72;;;;;;;19.76;53.77;101172.00;5586032;31;32452;-59
2022/05/10 06:42:23;;;;;;;6.30;4.25;;;;;;;19.79;56.26;101182.22;5582403;31;33831;-58
2022/05/10 06:45:26;;;;;;;10.55;4.80;;;;;;;19.97;51.90;101175.66;5568851;31;34961;-58
2022/05/10 06:48:28;;;;;;;8.00;4.68;;;;;;;20.05;53.43;101174.81;5586873;31;33811;-59
2022/05/10 06:51:32;;;;;;;7.10;4.32;;;;;;;20.27;53.74;101167.53;5583306;31;33570;-59
2022/05/10 06:54:35;;;;;;;7.35;4.62;;;;;;;20.44;58.04;101170.19;5585173;31;34257;-59
2022/05/10 06:57:37;;;;;;;8.35;4.20;;;;;;;20.34;47.62;101173.28;5586905;31;33584;-59
2022/05/10 07:00:40;;;;;;;7.53;4.32;;;;;;;20.35;51.29;101169.41;5584509;31;34387;-58
2022/05/10 07:03:49;;;;;;;6.45;4.57;;;;;;;20.51;53.97;101167.78;5586180;31;33714;-59
2022/05/10 07:06:51;;;;;;;9.23;4.40;;;;;;;20.58;52.41;101159.88;5581231;31;33673;-59
2022/05/10 07:09:53;;;;;;;6.80;4.50;;;;;;;20.57;48.90;101171.12;5578540;31;34446;-59
2022/05/10 07:12:58;;;;;;;8.75;4.25;;;;;;;20.44;47.86;101170.19;5584077;31;33740;-58
2022/05/10 07:16:02;;;;;;;9.80;4.37;;;;;;;20.38;47.48;101168.78;5574236;31;33395;-58
2022/05/10 07:19:04;;;;;;;10.70;5.15;;;;;;;20.50;50.82;101165.37;5584516;31;33717;-59
2022/05/10 07:22:07;;;;;;;11.38;4.78;;;;;;;20.76;49.74;101167.97;5587354;31;34289;-59
2022/05/10 07:25:12;;;;;;;10.40;3.90;;;;;;;20.93;47.13;101162.41;5584695;31;33857;-59
2022/05/10 07:28:15;;;;;;;9.03;4.83;;;;;;;20.90;48.18;101160.34;5586474;31;33929;-59
2022/05/10 07:31:17;;;;;;;6.90;4.85;;;;;;;20.95;46.31;101167.53;5587769;31;33096;-59
2022/05/10 07:34:19;;;;;;;8.80;4.10;;;;;;;20.88;47.97;101170.78;5583402;31;33750;-59
2022/05/10 07:37:21;;;;;;;8.18;4.45;;;;;;;21.09;49.33;101171.59;5585554;31;33614;-59
2022/05/10 07:40:24;;;;;;;8.75;4.12;;;;;;;21.15;46.00;101168.66;5586437;31;33714;-59
2022/05/10 07:43:33;;;;;;;7.43;3.85;;;;;;;21.33;47.09;101168.22;5586229;31;34001;-58
2022/05/10 07:46:36;;;;;;;8.80;4.43;;;;;;;21.23;45.62;101170.53;5581930;31;34304;-58
2022/05/10 07:49:39;;;;;;;12.77;4.05;;;;;;;21.10;43.90;101169.66;5584689;31;33192;-59
2022/05/10 07:52:46;;;;;;;12.10;4.18;;;;;;;21.02;45.72;101171.31;5580362;31;33862;-59
2022/05/10 07:55:49;;;;;;;6.28;3.83;;;;;;;21.02;45.83;101173.25;5583731;31;34108;-59
2022/05/10 07:58:55;;;;;;;12.05;4.20;;;;;;;21.17;45.88;101172.66;5583674;31;33619;-58
2022/05/10 08:01:59;;;;;;;7.40;4.32;;;;;;;21.20;45.05;101174.72;5584775;31;34388;-59
2022/05/10 08:05:03;;;;;;;8.45;4.40;;;;;;;21.22;45.62;101172.44;5585031;31;34386;-59
2022/05/10 08:08:07;;;;;;;7.65;4.28;;;;;;;21.25;46.81;101165.53;5583066;31;33606;-59
2022/05/10 08:11:09;;;;;;;8.85;4.15;;;;;;;21.44;46.91;101165.87;5582168;31;33289;-60
2022/05/10 08:14:12;;;;;;;6.68;4.43;;;;;;;21.42;47.48;101170.88;5585083;31;33640;-58
2022/05/10 08:17:14;;;;;;;9.70;4.37;;;;;;;21.55;47.20;101152.63;5574623;31;33702;-59
2022/05/10 08:20:17;;;;;;;5.70;3.85;;;;;;;21.52;43.85;101156.03;5585517;31;34444;-59
2022/05/10 08:23:22;;;;;;;6.80;4.18;;;;;;;21.52;44.44;101154.12;5581627;31;33619;-59
2022/05/10 08:26:24;;;;;;;6.50;4.18;;;;;;;21.57;46.30;101148.44;5584343;31;34319;-58
2022/05/10 08:29:27;;;;;;;8.38;4.10;;;;;;;21.56;45.42;101154.25;5578813;31;34664;-58
2022/05/10 08:32:29;;;;;;;7.53;4.00;;;;;;;21.53;45.13;101150.25;5576732;31;33645;-59
2022/05/10 08:35:31;;;;;;;7.18;3.80;;;;;;;21.54;43.86;101149.09;5584193;31;33445;-59
2022/05/10 08:38:34;;;;;;;5.75;3.95;;;;;;;21.52;44.80;101147.84;5575723;31;33781;-60
2022/05/10 08:41:48;;;;;;;10.90;4.20;;;;;;;21.62;47.18;101147.41;5583169;31;33664;-59
2022/05/10 08:44:59;;;;;;;15.82;4.70;;;;;;;21.70;43.13;101145.75;5578369;31;33621;-59
2022/05/10 08:48:02;;;;;;;5.78;3.85;;;;;;;21.74;46.08;101144.72;5581677;31;33667;-59
2022/05/10 08:51:04;;;;;;;12.52;4.18;;;;;;;22.00;50.04;101149.91;5584158;31;33377;-59
2022/05/10 08:54:08;;;;;;;7.05;3.58;;;;;;;21.90;43.52;101139.44;5574653;31;33551;-59
2022/05/10 08:57:48;;;;;;;9.10;4.22;;;;;;;21.95;47.40;101144.69;5584611;31;31963;-60
2022/05/10 09:00:53;;;;;;;5.95;4.00;;;;;;;22.00;44.21;101143.66;5581401;31;33825;-60
2022/05/10 09:04:19;;;;;;;6.57;3.50;;;;;;;22.04;43.99;101139.91;5582680;31;33563;-59
2022/05/10 09:07:38;;;;;;;9.32;4.18;;;;;;;22.13;44.71;101136.28;5585325;31;34329;-60
2022/05/10 09:10:50;;;;;;;11.30;4.28;;;;;;;22.14;42.09;101137.88;5579019;31;33702;-59
2022/05/10 09:13:54;;;;;;;11.77;3.87;;;;;;;22.02;45.13;101130.47;5581716;31;33266;-59
2022/05/10 09:16:56;;;;;;;8.98;4.22;;;;;;;22.07;42.93;101127.50;5584653;31;34563;-58
2022/05/10 09:19:59;;;;;;;6.10;3.78;;;;;;;22.08;42.15;101122.84;5579608;31;33632;-59
2022/05/10 09:23:45;;;;;;;5.53;3.58;;;;;;;22.17;45.29;101123.56;5582212;31;33820;-60
2022/05/10 09:26:52;;;;;;;9.02;3.80;;;;;;;22.21;42.85;101121.75;5553982;31;34351;-59
2022/05/10 09:29:54;;;;;;;13.90;4.35;;;;;;;22.25;44.69;101119.91;5568961;31;34379;-59
2022/05/10 09:36:37;;;;;;;7.80;3.40;;;;;;;22.46;44.47;101125.28;5583494;31;33580;-58
2022/05/10 09:39:56;;;;;;;8.60;4.00;;;;;;;22.58;44.29;101127.19;5586977;31;33634;-60
2022/05/10 09:43:27;;;;;;;6.45;4.18;;;;;;;22.59;41.92;101126.06;5585920;31;33707;-59
2022/05/10 09:46:34;;;;;;;8.10;3.58;;;;;;;22.48;42.32;101123.81;5583942;31;33605;-59
2022/05/10 09:49:39;;;;;;;18.05;4.82;;;;;;;22.51;42.43;101117.63;5586022;31;34240;-59
2022/05/10 09:52:42;;;;;;;11.68;3.75;;;;;;;22.57;41.38;101114.69;5586060;31;33699;-60
2022/05/10 09:55:58;;;;;;;6.15;3.92;;;;;;;22.60;42.05;101116.72;5580277;31;34251;-60
2022/05/10 09:59:13;;;;;;;6.82;3.55;;;;;;;22.43;42.87;101106.84;5581281;31;33336;-59
2022/05/10 10:02:57;;;;;;;9.10;4.45;;;;;;;22.48;42.78;101117.53;5579675;31;33636;-60
2022/05/10 10:06:19;;;;;;;9.68;3.50;;;;;;;22.45;41.92;101108.09;5554779;31;33657;-59
2022/05/10 10:09:32;;;;;;;6.15;3.60;;;;;;;22.44;42.76;101097.50;5581172;31;34001;-60
2022/05/10 10:12:37;;;;;;;5.90;3.22;;;;;;;22.58;42.78;101102.59;5585799;31;33684;-59
2022/05/10 10:15:43;;;;;;;8.13;4.10;;;;;;;22.67;42.82;101097.81;5586159;31;34510;-60
2022/05/10 10:18:52;;;;;;;9.40;3.90;;;;;;;22.70;42.58;101094.37;5584610;31;33767;-60
2022/05/10 10:22:01;;;;;;;8.48;3.70;;;;;;;22.62;43.91;101090.66;5585278;31;33706;-59
2022/05/10 10:25:33;;;;;;;7.10;3.62;;;;;;;22.61;43.56;101090.97;5587181;31;34498;-60
2022/05/10 10:28:58;;;;;;;7.85;3.55;;;;;;;22.65;42.24;101080.94;5586715;31;33794;-60
2022/05/10 10:32:23;;;;;;;6.87;3.92;;;;;;;22.73;42.33;101085.50;5588079;31;33776;-59
2022/05/10 10:35:38;;;;;;;10.32;3.87;;;;;;;22.88;41.59;101073.84;5573809;31;34410;-60
2022/05/10 10:39:11;;;;;;;10.25;3.47;;;;;;;22.94;41.74;101075.22;5586308;31;33889;-60
2022/05/10 10:42:24;;;;;;;9.55;3.72;;;;;;;22.91;41.72;101072.34;5575118;31;34347;-60
2022/05/10 10:45:40;;;;;;;6.25;3.22;;;;;;;22.75;44.24;101070.34;5585192;31;34416;-59
2022/05/10 10:49:08;;;;;;;6.53;4.32;;;;;;;22.60;46.10;101062.06;5567944;31;34475;-59
2022/05/10 10:52:13;;;;;;;22.10;5.93;;;;;;;22.39;43.64;101071.22;5573136;31;33722;-58
2022/05/10 10:55:18;;;;;;;14.23;6.45;;;;;;;22.20;54.36;101090.13;5576360;31;34092;-60
2022/05/10 10:58:42;;;;;;;21.33;9.18;;;;;;;21.75;58.05;101090.94;5587042;31;34364;-60
2022/05/10 11:02:04;;;;;;;20.80;9.43;;;;;;;21.31;65.16;101096.81;5587162;31;33639;-59
2022/05/10 11:05:29;;;;;;;9.88;6.40;;;;;;;20.85;72.96;101095.94;5579070;31;33738;-59
2022/05/10 11:08:39;;;;;;;8.00;6.60;;;;;;;20.73;68.53;101075.97;5581514;31;33747;-59
2022/05/10 11:11:55;;;;;;;10.48;6.70;;;;;;;20.03;71.77;101067.37;5586296;31;34306;-59
2022/05/10 11:15:23;;;;;;;11.07;7.68;;;;;;;19.77;75.80;101060.16;5585546;31;33670;-59
2022/05/10 11:19:11;;;;;;;10.40;7.97;;;;;;;19.51;79.04;101062.91;5582284;31;34384;-59
2022/05/10 11:22:39;;;;;;;10.95;8.40;;;;;;;19.33;81.54;101055.91;5587488;31;33976;-59
2022/05/10 11:26:02;;;;;;;13.15;8.80;;;;;;;19.35;83.59;101053.66;5582407;31;33577;-59
2022/05/10 11:29:10;;;;;;;9.27;7.90;;;;;;;19.36;86.11;101053.34;5586773;31;33842;-60
2022/05/10 11:32:40;;;;;;;11.95;8.63;;;;;;;19.42;86.99;101046.59;5584476;31;32158;-59
2022/05/10 11:36:07;;;;;;;12.55;8.65;;;;;;;19.48;85.88;101044.53;5586978;31;33638;-59
2022/05/10 11:39:43;;;;;;;11.57;7.87;;;;;;;19.59;84.89;101031.38;5577008;31;34385;-59
2022/05/10 11:43:16;;;;;;;12.63;9.25;;;;;;;19.63;83.11;101035.03;5568882;31;33756;-58
2022/05/10 11:46:45;;;;;;;14.45;9.32;;;;;;;19.70;82.93;101036.16;5581382;31;33400;-59
2022/05/10 11:49:50;;;;;;;18.92;10.13;;;;;;;19.80;81.64;101040.47;5585280;31;33355;-59
2022/05/10 11:53:11;;;;;;;12.35;8.57;;;;;;;19.56;83.01;101057.28;5584917;31;33806;-59
2022/05/10 11:56:15;;;;;;;17.85;7.07;;;;;;;19.27;80.94;101059.91;5587237;31;33742;-59
2022/05/10 11:59:23;;;;;;;9.32;6.80;;;;;;;19.01;81.10;101063.47;5587780;31;33869;-59
2022/05/10 12:02:28;;;;;;;10.07;5.90;;;;;;;18.89;80.80;101071.44;5585975;31;33778;-59
2022/05/10 12:05:36;;;;;;;13.15;6.30;;;;;;;18.68;76.45;101068.53;5587396;31;33702;-59
2022/05/10 12:08:38;;;;;;;11.52;6.32;;;;;;;18.62;80.59;101067.87;5587156;31;34443;-59
2022/05/10 12:11:43;;;;;;;10.23;6.15;;;;;;;18.57;84.17;101049.00;5586504;31;33617;-59
2022/05/10 12:21:48;;;;;;;11.32;7.05;;;;;;;18.71;84.06;101033.37;5567944;32;33310;-59
2022/05/10 12:24:52;;;;;;;10.48;6.22;;;;;;;18.70;83.33;101028.25;5579065;31;33730;-59
2022/05/10 12:27:59;;;;;;;8.05;6.45;;;;;;;18.76;84.75;101024.31;5584731;31;34517;-59
2022/05/10 12:31:01;;;;;;;8.40;6.37;;;;;;;18.82;81.90;101022.22;5579220;31;33397;-60
2022/05/10 12:34:41;;;;;;;10.38;6.65;;;;;;;18.72;83.02;101016.00;5572419;31;34358;-59
2022/05/10 12:37:49;;;;;;;8.18;7.00;;;;;;;18.59;85.53;101013.41;5574174;31;33774;-59
2022/05/10 12:41:05;;;;;;;11.20;7.28;;;;;;;18.49;85.68;101004.44;5570077;32;33801;-59
2022/05/10 12:44:28;;;;;;;7.93;7.15;;;;;;;18.52;88.54;100994.88;5579718;31;33721;-59
2022/05/10 12:48:01;;;;;;;10.50;7.05;;;;;;;18.54;88.21;100979.03;5589949;31;34036;-59
2022/05/10 12:51:22;;;;;;;12.07;7.18;;;;;;;18.62;89.71;100970.13;5574499;31;33616;-59
2022/05/10 12:54:43;;;;;;;10.25;8.15;;;;;;;18.82;89.08;100955.13;5574768;31;34270;-59
2022/05/10 12:57:54;;;;;;;8.65;7.45;;;;;;;18.95;88.96;100954.12;5589971;31;34447;-59
2022/05/10 13:01:01;;;;;;;11.43;6.93;;;;;;;19.07;87.98;100939.06;5589692;31;34400;-59
2022/05/10 13:04:13;;;;;;;17.83;6.78;;;;;;;19.22;89.00;100933.13;5577424;31;33580;-59
2022/05/10 13:07:40;;;;;;;8.60;5.72;;;;;;;19.37;87.16;100929.06;5589696;31;34330;-59
2022/05/10 13:10:43;;;;;;;8.40;5.47;;;;;;;19.54;80.47;100925.50;5589452;31;34407;-59
2022/05/10 13:13:47;;;;;;;7.78;5.80;;;;;;;19.66;80.93;100912.81;5589816;31;34354;-59
2022/05/10 13:16:52;;;;;;;7.40;5.50;;;;;;;19.75;82.23;100911.97;5589694;31;34427;-59
2022/05/10 13:19:56;;;;;;;7.32;5.90;;;;;;;19.84;84.17;100904.56;5589339;31;33782;-59
2022/05/10 13:23:01;;;;;;;7.97;6.07;;;;;;;19.90;84.99;100898.59;5589620;31;33747;-59
2022/05/10 13:26:06;;;;;;;7.20;5.83;;;;;;;19.97;80.41;100903.53;5589576;31;33776;-59
2022/05/10 13:29:09;;;;;;;8.77;5.60;;;;;;;20.05;84.13;100899.13;5588681;31;33656;-59
2022/05/10 13:32:26;;;;;;;8.23;4.10;;;;;;;20.10;81.83;100880.69;5589473;31;34318;-59
2022/05/10 13:35:33;;;;;;;4.43;3.58;;;;;;;20.15;77.94;100871.50;5589423;31;33779;-59
2022/05/10 13:38:45;;;;;;;5.32;3.80;;;;;;;20.25;70.06;100870.31;5589139;31;33831;-59
2022/05/10 13:41:48;;;;;;;5.47;3.42;;;;;;;20.37;70.16;100860.28;5574358;31;34281;-59
2022/05/10 13:44:50;;;;;;;5.40;3.83;;;;;;;20.46;69.39;100856.66;5576788;31;34405;-59
2022/05/10 13:47:59;;;;;;;6.53;3.35;;;;;;;20.50;72.14;100846.72;5585516;31;33635;-59
2022/05/10 13:51:16;;;;;;;5.20;3.33;;;;;;;20.52;71.47;100845.25;5588884;31;34215;-59
2022/05/10 13:54:25;;;;;;;5.70;3.45;;;;;;;20.62;67.34;100838.59;5588888;31;33700;-60
2022/05/10 13:57:32;;;;;;;6.05;3.80;;;;;;;20.68;65.32;100822.84;5589220;31;33412;-59
2022/05/10 14:00:39;;;;;;;6.55;3.65;;;;;;;20.72;70.62;100824.53;5589260;31;33586;-59
2022/05/10 14:03:51;;;;;;;4.93;3.92;;;;;;;20.73;67.64;100825.31;5575738;31;33672;-60
2022/05/10 14:07:03;;;;;;;4.80;3.33;;;;;;;20.77;69.86;100813.44;5588752;31;34124;-59
2022/05/10 14:10:11;;;;;;;7.12;3.50;;;;;;;20.83;67.26;100814.81;5588845;31;33666;-59
2022/05/10 14:13:21;;;;;;;6.37;3.80;;;;;;;20.89;62.86;100815.38;5585890;31;33676;-58
2022/05/10 14:16:46;;;;;;;6.72;3.78;;;;;;;20.95;67.28;100805.84;5581793;31;33655;-59
2022/05/10 14:19:51;;;;;;;5.60;3.22;;;;;;;21.04;66.18;100803.00;5588823;31;33779;-60
2022/05/10 14:22:57;;;;;;;7.65;4.03;;;;;;;21.07;63.67;100807.78;5589020;31;33789;-60
2022/05/10 14:26:20;;;;;;;8.40;4.25;;;;;;;21.19;64.58;100798.78;5587259;31;34262;-59
2022/05/10 14:29:43;;;;;;;6.78;3.83;;;;;;;21.30;63.71;100795.28;5586506;31;33034;-58
2022/05/10 14:32:45;;;;;;;6.93;3.87;;;;;;;21.37;63.46;100793.94;5577823;31;33760;-59
2022/05/10 14:36:00;;;;;;;6.70;3.33;;;;;;;21.47;63.43;100782.56;5588817;31;33607;-60
2022/05/10 14:39:07;;;;;;;5.00;3.25;;;;;;;21.49;60.38;100780.25;5588874;31;33831;-59
2022/05/10 14:42:25;;;;;;;5.72;3.40;;;;;;;21.50;55.52;100779.16;5581623;31;33613;-59
2022/05/10 14:45:37;;;;;;;8.32;3.55;;;;;;;21.60;56.74;100780.59;5569363;32;34498;-59
2022/05/10 14:48:45;;;;;;;8.23;3.12;;;;;;;21.65;52.12;100772.16;5584752;31;33593;-60
2022/05/10 14:51:49;;;;;;;5.32;2.90;;;;;;;21.79;48.89;100770.66;5587910;31;34275;-60
2022/05/10 14:54:53;;;;;;;5.25;2.62;;;;;;;21.84;45.66;100772.31;5589009;31;34469;-60
2022/05/10 14:57:58;;;;;;;6.53;3.25;;;;;;;21.90;41.37;100765.50;5588897;31;33205;-59
2022/05/10 15:01:00;;;;;;;;;;;;;;;22.03;49.30;100758.03;5589171;31;33769;-60
2022/05/10 15:04:08;;;;;;;5.30;2.72;;;;;;;22.10;46.50;100757.44;5588348;31;33951;-59
2022/05/10 15:07:11;;;;;;;5.53;2.70;;;;;;;22.08;40.22;100757.78;5588553;31;33727;-60
2022/05/10 15:10:13;;;;;;;5.05;2.83;;;;;;;22.13;45.43;100762.22;5587663;31;34440;-60
2022/05/10 15:13:16;;;;;;;7.53;2.80;;;;;;;22.14;41.46;100753.66;5588707;31;33688;-60
2022/05/10 15:16:18;;;;;;;7.82;2.97;;;;;;;22.15;41.72;100758.03;5588774;31;33723;-59
2022/05/10 15:19:20;;;;;;;5.95;2.50;;;;;;;22.37;37.79;100756.63;5588739;31;33623;-60
2022/05/10 15:22:23;;;;;;;4.53;2.70;;;;;;;22.42;36.35;100755.59;5588751;31;33359;-60
2022/05/10 15:25:26;;;;;;;5.55;2.92;;;;;;;22.34;36.69;100746.41;5588725;31;33768;-60
2022/05/10 15:28:28;;;;;;;5.60;2.60;;;;;;;22.50;35.36;100746.44;5587441;31;33324;-59
2022/05/10 15:31:31;;;;;;;8.80;3.00;;;;;;;22.45;38.88;100754.88;5588798;31;33611;-59
2022/05/10 15:34:43;;;;;;;7.15;3.00;;;;;;;22.47;36.85;100758.06;5588601;31;33716;-60
2022/05/10 15:37:46;;;;;;;6.75;3.25;;;;;;;22.46;35.95;100753.75;5588665;31;33684;-60
2022/05/10 15:40:52;;;;;;;6.93;3.15;;;;;;;22.42;36.33;100750.94;5588439;31;33799;-59
2022/05/10 15:43:56;;;;;;;6.68;3.10;;;;;;;22.60;33.87;100740.44;5588398;31;33713;-60
